createdAt,value
2023-05-25T00:01:16.629Z,76.67
2023-05-25T00:03:44.065Z,76.66
2023-05-25T00:06:11.098Z,76.68
2023-05-25T00:08:40.458Z,76.71
2023-05-25T00:11:07.274Z,76.95
2023-05-25T00:13:34.070Z,77.29
2023-05-25T00:16:01.025Z,77.54
2023-05-25T00:18:27.839Z,77.51
2023-05-25T00:20:54.722Z,77.42
2023-05-25T00:23:21.595Z,77.14
2023-05-25T00:25:48.441Z,77.03
2023-05-25T00:28:15.326Z,77.11
2023-05-25T00:30:42.096Z,77.14
2023-05-25T00:33:10.736Z,77.16
2023-05-25T00:35:37.704Z,77.37
2023-05-25T00:38:04.446Z,77.52
2023-05-25T00:40:31.350Z,77.65
2023-05-25T00:42:58.646Z,77.80
2023-05-25T00:45:25.582Z,77.85
2023-05-25T00:47:52.945Z,78.06
2023-05-25T00:50:21.950Z,78.03
2023-05-25T00:52:49.245Z,78.01
2023-05-25T00:55:16.352Z,78.02
2023-05-25T00:57:46.224Z,78.09
2023-05-25T01:00:13.867Z,78.07
2023-05-25T01:02:41.612Z,77.77
2023-05-25T01:05:09.030Z,77.87
2023-05-25T01:07:37.126Z,77.92
2023-05-25T01:10:08.109Z,77.81
2023-05-25T01:12:36.908Z,77.80
2023-05-25T01:15:04.457Z,78.04
2023-05-25T01:17:32.429Z,78.34
2023-05-25T01:20:09.640Z,78.28
2023-05-25T01:22:57.436Z,78.08
2023-05-25T01:25:37.044Z,78.59
2023-05-25T01:28:11.612Z,78.46
2023-05-25T01:30:38.468Z,78.53
2023-05-25T01:33:05.715Z,78.58
2023-05-25T01:35:32.605Z,78.61
2023-05-25T01:37:59.504Z,78.63
2023-05-25T01:40:27.180Z,78.62
2023-05-25T01:42:54.097Z,78.92
2023-05-25T01:45:20.948Z,79.17
2023-05-25T01:48:03.707Z,79.05
2023-05-25T01:50:34.625Z,79.20
2023-05-25T01:53:05.020Z,79.34
2023-05-25T01:55:35.404Z,79.27
2023-05-25T01:58:02.358Z,79.57
2023-05-25T02:00:31.997Z,79.49
2023-05-25T02:02:59.002Z,79.45
2023-05-25T02:05:26.898Z,79.53
2023-05-25T02:07:54.070Z,79.68
2023-05-25T02:10:21.196Z,79.87
2023-05-25T02:12:48.123Z,79.80
2023-05-25T02:15:15.983Z,79.81
2023-05-25T02:17:43.551Z,80.01
2023-05-25T02:20:11.597Z,79.96
2023-05-25T02:22:38.532Z,80.17
2023-05-25T02:25:05.938Z,80.04
2023-05-25T02:27:32.757Z,80.15
2023-05-25T02:29:59.613Z,80.36
2023-05-25T02:32:26.550Z,80.49
2023-05-25T02:34:53.500Z,80.41
2023-05-25T02:37:20.308Z,80.52
2023-05-25T02:39:47.229Z,80.54
2023-05-25T02:42:14.085Z,80.51
2023-05-25T02:44:41.098Z,80.48
2023-05-25T02:47:07.998Z,80.46
2023-05-25T02:49:34.990Z,80.18
2023-05-25T02:52:01.975Z,79.91
2023-05-25T02:54:28.914Z,79.86
2023-05-25T02:56:56.187Z,79.98
2023-05-25T02:59:25.139Z,79.99
2023-05-25T03:01:52.023Z,80.02
2023-05-25T03:04:19.049Z,80.08
2023-05-25T03:06:45.884Z,80.56
2023-05-25T03:09:12.811Z,80.93
2023-05-25T03:11:39.877Z,81.05
2023-05-25T03:14:06.721Z,81.06
2023-05-25T03:16:36.561Z,81.05
2023-05-25T03:19:05.694Z,81.06
2023-05-25T03:21:33.205Z,80.65
2023-05-25T03:24:00.166Z,80.39
2023-05-25T03:26:27.095Z,80.33
2023-05-25T03:28:53.945Z,80.24
2023-05-25T03:31:20.830Z,80.23
2023-05-25T03:33:47.680Z,80.19
2023-05-25T03:36:17.447Z,80.07
2023-05-25T03:38:44.720Z,80.06
2023-05-25T03:41:11.433Z,80.16
2023-05-25T03:43:38.227Z,80.07
2023-05-25T03:46:05.349Z,80.13
2023-05-25T03:48:32.161Z,80.23
2023-05-25T03:50:59.009Z,80.35
2023-05-25T03:53:26.059Z,80.56
2023-05-25T03:55:53.041Z,80.73
2023-05-25T03:58:19.887Z,80.78
2023-05-25T04:00:49.262Z,81.23
2023-05-25T04:03:16.612Z,81.51
2023-05-25T04:05:46.030Z,81.65
2023-05-25T04:08:24.240Z,81.82
2023-05-25T04:10:50.995Z,82.04
2023-05-25T04:13:17.842Z,82.32
2023-05-25T04:15:44.969Z,82.41
2023-05-25T04:18:12.142Z,82.37
2023-05-25T04:20:39.525Z,82.63
2023-05-25T04:23:06.442Z,82.86
2023-05-25T04:25:33.188Z,82.79
2023-05-25T04:28:00.844Z,82.48
2023-05-25T04:30:28.576Z,82.53
2023-05-25T04:32:57.670Z,82.39
2023-05-25T04:35:24.554Z,82.03
2023-05-25T04:37:51.775Z,80.30
2023-05-25T04:40:18.753Z,79.95
2023-05-25T04:42:45.540Z,80.01
2023-05-25T04:45:12.365Z,79.09
2023-05-25T04:47:41.455Z,79.30
2023-05-25T04:50:10.280Z,78.95
2023-05-25T04:52:37.576Z,78.12
2023-05-25T04:55:08.106Z,77.80
2023-05-25T04:57:35.207Z,78.68
2023-05-25T05:00:02.211Z,77.75
2023-05-25T05:02:29.263Z,77.45
2023-05-25T05:04:56.250Z,77.05
2023-05-25T05:07:23.235Z,76.87
2023-05-25T05:09:50.081Z,76.57
2023-05-25T05:12:16.913Z,76.51
2023-05-25T05:14:43.623Z,76.80
2023-05-25T05:17:10.684Z,76.02
2023-05-25T05:19:37.768Z,75.32
2023-05-25T05:22:04.818Z,73.73
2023-05-25T05:24:31.727Z,74.60
2023-05-25T05:26:59.317Z,74.55
2023-05-25T05:29:28.305Z,72.79
2023-05-25T05:31:56.740Z,70.83
2023-05-25T05:34:23.861Z,71.35
2023-05-25T05:36:58.089Z,71.00
2023-05-25T05:39:26.338Z,70.16
2023-05-25T05:41:54.001Z,69.00
2023-05-25T05:44:21.567Z,69.62
2023-05-25T05:46:48.643Z,68.59
2023-05-25T05:49:15.886Z,69.07
2023-05-25T05:51:42.983Z,69.15
2023-05-25T05:54:09.705Z,66.87
2023-05-25T05:56:36.588Z,66.35
2023-05-25T05:59:03.482Z,65.26
2023-05-25T06:01:30.337Z,65.31
2023-05-25T06:03:57.280Z,67.55
2023-05-25T06:06:24.169Z,64.61
2023-05-25T06:08:51.578Z,64.51
2023-05-25T06:11:18.571Z,62.81
2023-05-25T06:13:46.593Z,63.86
2023-05-25T06:16:13.766Z,62.46
2023-05-25T06:18:40.694Z,62.05
2023-05-25T06:21:07.531Z,62.00
2023-05-25T06:23:34.505Z,62.10
2023-05-25T06:26:07.373Z,64.70
2023-05-25T06:28:34.381Z,65.02
2023-05-25T06:31:01.228Z,64.02
2023-05-25T06:33:28.193Z,62.35
2023-05-25T06:35:58.773Z,60.13
2023-05-25T06:38:25.675Z,61.19
2023-05-25T06:40:52.520Z,60.62
2023-05-25T06:43:19.448Z,58.49
2023-05-25T06:45:46.644Z,59.84
2023-05-25T06:48:14.285Z,54.58
2023-05-25T06:50:42.608Z,56.09
2023-05-25T06:53:11.160Z,54.20
2023-05-25T06:55:38.141Z,55.35
2023-05-25T06:58:05.137Z,53.72
2023-05-25T07:00:32.370Z,53.17
2023-05-25T07:02:59.656Z,53.58
2023-05-25T07:05:27.245Z,53.44
2023-05-25T07:07:54.296Z,58.63
2023-05-25T07:10:21.156Z,59.29
2023-05-25T07:12:47.985Z,59.35
2023-05-25T07:15:16.191Z,58.62
2023-05-25T07:17:43.222Z,54.11
2023-05-25T07:20:10.812Z,53.72
2023-05-25T07:22:37.693Z,51.89
2023-05-25T07:25:04.981Z,53.83
2023-05-25T07:27:34.128Z,53.58
2023-05-25T07:30:01.135Z,51.71
2023-05-25T07:32:28.196Z,50.55
2023-05-25T07:34:55.127Z,51.06
2023-05-25T07:37:22.024Z,52.81
2023-05-25T07:39:48.974Z,51.83
2023-05-25T07:42:21.040Z,47.44
2023-05-25T07:44:49.040Z,47.45
2023-05-25T07:47:16.019Z,47.12
2023-05-25T07:49:42.936Z,45.89
2023-05-25T07:52:10.521Z,47.43
2023-05-25T07:54:40.605Z,48.74
2023-05-25T07:57:08.320Z,47.55
2023-05-25T07:59:35.422Z,45.56
2023-05-25T08:02:02.804Z,45.74
2023-05-25T08:04:34.061Z,45.65
2023-05-25T08:07:01.745Z,45.17
2023-05-25T08:09:28.626Z,45.32
2023-05-25T08:12:07.805Z,46.42
2023-05-25T08:14:42.344Z,45.72
2023-05-25T08:17:09.154Z,45.97
2023-05-25T08:19:36.075Z,46.20
2023-05-25T08:22:03.074Z,45.74
2023-05-25T08:24:29.977Z,47.89
2023-05-25T08:26:56.810Z,43.92
2023-05-25T08:29:23.641Z,45.51
2023-05-25T08:31:51.383Z,44.68
2023-05-25T08:34:18.427Z,44.13
2023-05-25T08:36:45.929Z,45.17
2023-05-25T08:39:13.545Z,45.52
2023-05-25T08:41:45.250Z,44.11
2023-05-25T08:44:14.634Z,45.13
2023-05-25T08:46:41.737Z,46.99
2023-05-25T08:49:12.796Z,44.86
2023-05-25T08:51:43.107Z,43.01
2023-05-25T08:54:11.122Z,40.44
2023-05-25T08:56:56.495Z,40.95
2023-05-25T08:59:35.948Z,42.98
2023-05-25T09:02:14.839Z,40.19
2023-05-25T09:04:42.681Z,41.96
2023-05-25T09:07:11.125Z,41.33
2023-05-25T09:09:39.056Z,43.78
2023-05-25T09:12:06.618Z,45.10
2023-05-25T09:14:34.264Z,46.39
2023-05-25T09:17:01.195Z,47.66
2023-05-25T09:19:28.045Z,49.13
2023-05-25T09:22:03.078Z,50.03
2023-05-25T09:24:41.597Z,50.56
2023-05-25T09:27:11.454Z,51.51
2023-05-25T09:29:38.335Z,50.99
2023-05-25T09:32:08.518Z,51.55
2023-05-25T09:34:35.612Z,50.91
2023-05-25T09:37:13.585Z,52.39
2023-05-25T09:39:41.928Z,51.18
2023-05-25T09:42:08.917Z,49.75
2023-05-25T09:44:35.995Z,49.56
2023-05-25T09:47:03.714Z,49.65
2023-05-25T09:49:30.524Z,50.38
2023-05-25T09:51:57.523Z,47.61
2023-05-25T09:54:24.363Z,45.36
2023-05-25T09:56:51.847Z,45.91
2023-05-25T09:59:18.819Z,43.79
2023-05-25T10:01:45.807Z,40.95
2023-05-25T10:04:16.434Z,41.20
2023-05-25T10:06:43.321Z,39.69
2023-05-25T10:09:10.233Z,37.85
2023-05-25T10:11:37.025Z,40.41
2023-05-25T10:14:06.958Z,38.23
2023-05-25T10:16:34.481Z,40.56
2023-05-25T10:19:02.039Z,38.84
2023-05-25T10:21:30.084Z,39.27
2023-05-25T10:24:02.169Z,38.12
2023-05-25T10:26:29.100Z,38.38
2023-05-25T10:28:56.964Z,40.96
2023-05-25T10:31:28.508Z,40.03
2023-05-25T10:33:56.646Z,38.50
2023-05-25T10:36:23.643Z,37.99
2023-05-25T10:38:51.825Z,38.81
2023-05-25T10:41:21.208Z,41.50
2023-05-25T10:43:48.326Z,42.91
2023-05-25T10:46:15.422Z,44.26
2023-05-25T10:48:49.220Z,44.45
2023-05-25T10:51:16.235Z,44.36
2023-05-25T10:53:46.962Z,46.00
2023-05-25T10:56:14.505Z,47.21
2023-05-25T10:58:43.851Z,46.91
2023-05-25T11:01:12.123Z,47.48
2023-05-25T11:03:45.292Z,46.46
2023-05-25T11:06:13.835Z,46.04
2023-05-25T11:08:56.035Z,47.34
2023-05-25T11:11:43.603Z,46.24
2023-05-25T11:14:30.655Z,46.40
2023-05-25T11:17:18.538Z,44.72
2023-05-25T11:19:50.672Z,45.88
2023-05-25T11:22:22.213Z,45.91
2023-05-25T11:24:52.701Z,46.26
2023-05-25T11:27:32.289Z,46.87
2023-05-25T11:29:59.603Z,46.99
2023-05-25T11:32:26.997Z,49.14
2023-05-25T11:34:54.199Z,49.59
2023-05-25T11:37:22.815Z,50.03
2023-05-25T11:39:50.173Z,51.48
2023-05-25T11:42:17.143Z,52.90
2023-05-25T11:44:44.129Z,53.28
2023-05-25T11:47:30.220Z,53.85
2023-05-25T11:49:58.556Z,55.64
2023-05-25T11:52:25.657Z,56.98
2023-05-25T11:54:53.514Z,56.28
2023-05-25T11:57:27.550Z,56.92
2023-05-25T12:00:00.372Z,58.05
2023-05-25T12:02:27.259Z,59.30
2023-05-25T12:04:55.590Z,61.35
2023-05-25T12:07:22.527Z,60.96
2023-05-25T12:09:49.443Z,60.79
2023-05-25T12:12:16.287Z,60.20
2023-05-25T12:14:49.716Z,60.32
2023-05-25T12:17:21.310Z,61.92
2023-05-25T12:19:48.194Z,62.88
2023-05-25T12:22:14.949Z,61.93
2023-05-25T12:24:41.791Z,62.55
2023-05-25T12:27:18.473Z,62.53
2023-05-25T12:29:48.745Z,62.24
2023-05-25T12:32:16.429Z,63.23
2023-05-25T12:34:43.412Z,64.51
2023-05-25T12:37:20.433Z,65.51
2023-05-25T12:39:47.544Z,65.82
2023-05-25T12:42:16.051Z,66.23
2023-05-25T12:44:43.291Z,66.68
2023-05-25T12:47:21.441Z,66.50
2023-05-25T12:49:54.904Z,66.10
2023-05-25T12:52:41.343Z,67.87
2023-05-25T12:55:30.271Z,69.13
2023-05-25T12:58:06.967Z,69.58
2023-05-25T13:00:38.242Z,70.20
2023-05-25T13:03:07.943Z,70.15
2023-05-25T13:05:37.037Z,71.06
2023-05-25T13:08:04.897Z,70.15
2023-05-25T13:10:32.941Z,70.29
2023-05-25T13:13:00.956Z,69.40
2023-05-25T13:15:28.087Z,68.64
2023-05-25T13:17:55.155Z,66.29
2023-05-25T13:20:23.648Z,66.39
2023-05-25T13:22:51.465Z,66.53
2023-05-25T13:25:18.402Z,67.17
2023-05-25T13:27:46.602Z,65.78
2023-05-25T13:30:13.941Z,66.45
2023-05-25T13:32:40.870Z,66.81
2023-05-25T13:35:08.171Z,66.66
2023-05-25T13:37:34.984Z,66.85
2023-05-25T13:40:01.946Z,66.46
2023-05-25T13:42:28.953Z,66.49
2023-05-25T13:44:56.145Z,65.84
2023-05-25T13:47:23.125Z,66.00
2023-05-25T13:49:50.161Z,64.59
2023-05-25T13:52:17.142Z,65.09
2023-05-25T13:54:44.084Z,63.98
2023-05-25T13:57:11.330Z,64.12
2023-05-25T13:59:38.750Z,64.23
2023-05-25T14:02:06.044Z,65.14
2023-05-25T14:04:32.959Z,65.69
2023-05-25T14:07:00.197Z,66.25
2023-05-25T14:09:27.244Z,65.92
2023-05-25T14:11:54.797Z,66.35
2023-05-25T14:14:31.304Z,65.95
2023-05-25T14:17:00.588Z,66.10
2023-05-25T14:19:27.497Z,66.23
2023-05-25T14:22:11.154Z,66.37
2023-05-25T14:24:40.815Z,66.59
2023-05-25T14:27:07.809Z,66.46
2023-05-25T14:29:34.866Z,67.47
2023-05-25T14:32:01.844Z,66.80
2023-05-25T14:34:29.466Z,66.48
2023-05-25T14:36:56.738Z,66.62
2023-05-25T14:39:23.634Z,66.09
2023-05-25T14:41:50.766Z,66.09
2023-05-25T14:44:18.016Z,65.85
2023-05-25T14:46:45.191Z,66.56
2023-05-25T14:49:13.753Z,66.20
2023-05-25T14:51:40.702Z,65.44
2023-05-25T14:54:08.050Z,64.79
2023-05-25T14:56:35.232Z,66.44
2023-05-25T14:59:02.117Z,66.26
2023-05-25T15:01:31.982Z,66.82
2023-05-25T15:03:59.115Z,67.26
2023-05-25T15:06:26.147Z,67.57
2023-05-25T15:08:52.893Z,67.22
2023-05-25T15:11:19.735Z,67.04
2023-05-25T15:13:46.705Z,67.02
2023-05-25T15:16:14.871Z,60.03
2023-05-25T15:18:41.964Z,61.69
2023-05-25T15:21:09.167Z,62.84
2023-05-25T15:23:36.057Z,62.46
2023-05-25T15:26:04.675Z,60.78
2023-05-25T15:28:31.734Z,62.57
2023-05-25T15:31:00.869Z,58.82
2023-05-25T15:33:43.652Z,56.89
2023-05-25T15:36:16.797Z,56.59
2023-05-25T15:38:44.631Z,57.62
2023-05-25T15:41:12.936Z,60.10
2023-05-25T15:43:39.884Z,61.76
2023-05-25T15:46:06.864Z,62.55
2023-05-25T15:48:33.780Z,61.35
2023-05-25T15:51:00.987Z,62.63
2023-05-25T15:53:27.826Z,63.85
2023-05-25T15:55:54.671Z,65.13
2023-05-25T15:58:21.719Z,64.11
2023-05-25T16:00:48.566Z,63.20
2023-05-25T16:03:15.505Z,63.31
2023-05-25T16:05:42.432Z,62.88
2023-05-25T16:08:09.273Z,60.96
2023-05-25T16:10:36.090Z,60.93
2023-05-25T16:13:02.889Z,61.68
2023-05-25T16:15:29.825Z,61.69
2023-05-25T16:17:56.671Z,64.52
2023-05-25T16:20:23.495Z,63.31
2023-05-25T16:22:50.301Z,65.70
2023-05-25T16:25:17.257Z,66.67
2023-05-25T16:27:44.338Z,65.00
2023-05-25T16:30:13.363Z,66.04
2023-05-25T16:32:40.643Z,64.60
2023-05-25T16:35:07.678Z,63.07
2023-05-25T16:37:34.539Z,64.35
2023-05-25T16:40:01.379Z,64.27
2023-05-25T16:42:28.221Z,64.27
2023-05-25T16:44:54.956Z,63.82
2023-05-25T16:47:21.954Z,63.34
2023-05-25T16:49:49.114Z,64.88
2023-05-25T16:52:15.949Z,65.66
2023-05-25T16:54:42.861Z,67.45
2023-05-25T16:57:12.116Z,68.85
2023-05-25T16:59:39.465Z,70.03
2023-05-25T17:02:06.810Z,70.73
2023-05-25T17:04:33.871Z,70.80
2023-05-25T17:07:00.849Z,70.85
2023-05-25T17:09:27.748Z,71.57
2023-05-25T17:11:59.516Z,71.96
2023-05-25T17:14:26.448Z,72.53
2023-05-25T17:16:53.406Z,72.91
2023-05-25T17:19:20.288Z,72.51
2023-05-25T17:21:47.846Z,73.02
2023-05-25T17:24:14.652Z,72.93
2023-05-25T17:26:41.579Z,73.41
2023-05-25T17:29:08.552Z,73.74
2023-05-25T17:31:35.684Z,73.34
2023-05-25T17:34:02.725Z,72.81
2023-05-25T17:36:29.635Z,73.01
2023-05-25T17:38:56.485Z,73.49
2023-05-25T17:41:23.364Z,73.61
2023-05-25T17:43:50.256Z,73.89
2023-05-25T17:46:17.740Z,74.00
2023-05-25T17:48:45.801Z,74.26
2023-05-25T17:51:12.715Z,74.57
2023-05-25T17:53:40.107Z,74.79
2023-05-25T17:56:10.267Z,75.03
2023-05-25T17:58:37.471Z,74.80
2023-05-25T18:01:04.942Z,73.98
2023-05-25T18:03:32.020Z,73.64
2023-05-25T18:05:59.281Z,73.08
2023-05-25T18:08:26.622Z,72.75
2023-05-25T18:10:53.476Z,72.91
2023-05-25T18:13:20.576Z,72.54
2023-05-25T18:15:47.570Z,72.69
2023-05-25T18:18:16.668Z,72.39
2023-05-25T18:20:43.703Z,72.49
2023-05-25T18:23:10.835Z,72.86
2023-05-25T18:25:37.749Z,73.95
2023-05-25T18:28:04.651Z,74.40
2023-05-25T18:30:31.534Z,74.46
2023-05-25T18:32:58.608Z,74.15
2023-05-25T18:35:25.437Z,73.80
2023-05-25T18:37:52.279Z,73.97
2023-05-25T18:40:19.171Z,73.65
2023-05-25T18:42:46.216Z,73.60
2023-05-25T18:45:13.110Z,74.31
2023-05-25T18:47:40.290Z,74.15
2023-05-25T18:50:07.370Z,74.95
2023-05-25T18:52:34.203Z,75.24
2023-05-25T18:55:01.562Z,75.21
2023-05-25T18:57:28.932Z,74.61
2023-05-25T18:59:55.854Z,74.58
2023-05-25T19:02:22.765Z,74.80
2023-05-25T19:04:49.732Z,75.25
2023-05-25T19:07:16.862Z,75.46
2023-05-25T19:09:43.817Z,75.59
2023-05-25T19:12:10.960Z,75.88
2023-05-25T19:14:37.957Z,76.00
2023-05-25T19:17:05.012Z,76.06
2023-05-25T19:19:31.997Z,76.13
2023-05-25T19:21:58.936Z,76.44
2023-05-25T19:24:25.973Z,76.61
2023-05-25T19:26:52.938Z,76.67
2023-05-25T19:29:19.943Z,76.49
2023-05-25T19:31:46.844Z,76.39
2023-05-25T19:34:13.924Z,76.39
2023-05-25T19:36:40.983Z,76.56
2023-05-25T19:39:07.912Z,76.77
2023-05-25T19:41:37.748Z,76.94
2023-05-25T19:44:04.631Z,77.20
2023-05-25T19:46:31.721Z,77.08
2023-05-25T19:48:59.150Z,77.23
2023-05-25T19:51:26.379Z,77.43
2023-05-25T19:53:53.917Z,77.59
2023-05-25T19:56:21.353Z,77.74
2023-05-25T19:58:48.254Z,77.90
2023-05-25T20:01:15.165Z,77.74
2023-05-25T20:03:44.194Z,77.85
2023-05-25T20:06:11.147Z,77.78
2023-05-25T20:08:38.064Z,77.59
2023-05-25T20:11:05.009Z,77.75
2023-05-25T20:13:31.913Z,77.59
2023-05-25T20:15:58.889Z,77.56
2023-05-25T20:18:25.751Z,77.61
2023-05-25T20:20:52.725Z,77.63
2023-05-25T20:23:19.584Z,77.60
2023-05-25T20:25:46.745Z,77.67
2023-05-25T20:28:13.730Z,77.66
2023-05-25T20:30:40.794Z,77.56
2023-05-25T20:33:07.780Z,77.78
2023-05-25T20:35:36.558Z,77.98
2023-05-25T20:38:03.465Z,78.20
2023-05-25T20:40:31.337Z,78.42
2023-05-25T20:42:58.326Z,78.39
2023-05-25T20:45:25.328Z,78.34
2023-05-25T20:48:02.345Z,78.43
2023-05-25T20:50:29.340Z,78.33
2023-05-25T20:52:56.812Z,78.05
2023-05-25T20:55:23.773Z,78.05
2023-05-25T20:57:51.125Z,78.07
2023-05-25T21:00:18.725Z,78.10
2023-05-25T21:02:45.616Z,77.81
2023-05-25T21:05:12.742Z,77.81
2023-05-25T21:07:39.693Z,78.03
2023-05-25T21:10:07.085Z,78.09
2023-05-25T21:12:34.381Z,78.03
2023-05-25T21:15:01.273Z,78.08
2023-05-25T21:17:28.467Z,78.12
2023-05-25T21:19:55.864Z,77.92
2023-05-25T21:22:22.777Z,78.29
2023-05-25T21:24:50.244Z,78.51
2023-05-25T21:27:17.955Z,78.73
2023-05-25T21:29:44.736Z,78.82
2023-05-25T21:32:11.534Z,78.95
2023-05-25T21:34:38.625Z,79.14
2023-05-25T21:37:05.882Z,79.55
2023-05-25T21:39:32.847Z,80.23
2023-05-25T21:41:59.996Z,80.56
2023-05-25T21:44:27.354Z,80.71
2023-05-25T21:46:54.275Z,80.70
2023-05-25T21:49:21.117Z,81.03
2023-05-25T21:51:48.018Z,80.85
2023-05-25T21:54:15.018Z,80.73
2023-05-25T21:56:41.853Z,80.61
2023-05-25T21:59:08.657Z,80.45
2023-05-25T22:01:35.665Z,80.29
2023-05-25T22:04:02.687Z,80.25
2023-05-25T22:06:29.585Z,80.13
2023-05-25T22:08:56.436Z,79.92
2023-05-25T22:11:24.580Z,79.84
2023-05-25T22:13:51.498Z,79.70
2023-05-25T22:16:18.364Z,79.67
2023-05-25T22:18:45.179Z,79.53
2023-05-25T22:21:11.970Z,79.24
2023-05-25T22:23:38.880Z,79.24
2023-05-25T22:26:05.838Z,79.13
2023-05-25T22:28:32.718Z,79.14
2023-05-25T22:30:59.600Z,79.10
2023-05-25T22:33:26.550Z,79.09
2023-05-25T22:35:53.294Z,78.92
2023-05-25T22:38:20.042Z,78.69
2023-05-25T22:40:47.989Z,78.59
2023-05-25T22:43:15.105Z,78.71
2023-05-25T22:45:41.895Z,78.59
2023-05-25T22:48:09.001Z,78.51
2023-05-25T22:50:36.348Z,78.65
2023-05-25T22:53:03.352Z,78.58
2023-05-25T22:55:30.241Z,78.71
2023-05-25T22:57:57.135Z,78.55
2023-05-25T23:00:24.067Z,78.67
2023-05-25T23:02:50.945Z,78.68
2023-05-25T23:05:17.833Z,78.62
2023-05-25T23:07:45.024Z,78.65
2023-05-25T23:10:11.964Z,78.62
2023-05-25T23:12:38.844Z,78.82
2023-05-25T23:15:08.152Z,78.95
2023-05-25T23:17:35.219Z,78.98
2023-05-25T23:20:02.279Z,79.33
2023-05-25T23:22:29.167Z,79.50
2023-05-25T23:24:56.266Z,79.46
2023-05-25T23:27:23.088Z,79.65
2023-05-25T23:29:49.995Z,79.73
2023-05-25T23:32:16.886Z,79.73
2023-05-25T23:34:43.831Z,79.94
2023-05-25T23:37:10.931Z,80.08
2023-05-25T23:39:38.080Z,79.89
2023-05-25T23:42:04.935Z,79.89
2023-05-25T23:44:32.101Z,79.71
2023-05-25T23:46:59.121Z,79.77
2023-05-25T23:49:26.013Z,79.73
2023-05-25T23:51:53.423Z,79.38
2023-05-25T23:54:20.263Z,79.62
2023-05-25T23:56:47.210Z,79.63
2023-05-25T23:59:15.417Z,79.42
